sensor_id;sensor_type;location;lat;lon;timestamp;P1;durP1;ratioP1;P2;durP2;ratioP2
48987;SDS011;34799;51.440;-2.534;2023-04-06T00:01:12;5.60;;;3.85;;
48987;SDS011;34799;51.440;-2.534;2023-04-06T00:03:39;6.43;;;4.47;;
48987;SDS011;34799;51.440;-2.534;2023-04-06T00:06:06;6.38;;;4.05;;
48987;SDS011;34799;51.440;-2.534;2023-04-06T00:08:33;5.05;;;3.65;;
48987;SDS011;34799;51.440;-2.534;2023-04-06T00:11:00;6.22;;;4.03;;
48987;SDS011;34799;51.440;-2.534;2023-04-06T00:13:27;5.97;;;3.80;;
48987;SDS011;34799;51.440;-2.534;2023-04-06T00:15:56;4.95;;;3.78;;
48987;SDS011;34799;51.440;-2.534;2023-04-06T00:18:23;6.10;;;3.85;;
48987;SDS011;34799;51.440;-2.534;2023-04-06T00:20:50;6.47;;;3.67;;
48987;SDS011;34799;51.440;-2.534;2023-04-06T00:23:17;7.50;;;4.32;;
48987;SDS011;34799;51.440;-2.534;2023-04-06T00:25:44;7.05;;;4.20;;
48987;SDS011;34799;51.440;-2.534;2023-04-06T00:28:12;6.80;;;4.20;;
48987;SDS011;34799;51.440;-2.534;2023-04-06T00:30:41;6.15;;;4.03;;
48987;SDS011;34799;51.440;-2.534;2023-04-06T00:33:08;6.68;;;4.00;;
48987;SDS011;34799;51.440;-2.534;2023-04-06T00:35:35;4.82;;;3.45;;
48987;SDS011;34799;51.440;-2.534;2023-04-06T00:38:03;5.03;;;3.50;;
48987;SDS011;34799;51.440;-2.534;2023-04-06T00:40:30;5.40;;;3.83;;
48987;SDS011;34799;51.440;-2.534;2023-04-06T00:42:57;5.50;;;3.92;;
48987;SDS011;34799;51.440;-2.534;2023-04-06T00:45:24;6.30;;;4.10;;
48987;SDS011;34799;51.440;-2.534;2023-04-06T00:47:52;5.97;;;3.90;;
48987;SDS011;34799;51.440;-2.534;2023-04-06T00:50:20;8.02;;;3.80;;
48987;SDS011;34799;51.440;-2.534;2023-04-06T00:52:47;5.90;;;3.85;;
48987;SDS011;34799;51.440;-2.534;2023-04-06T00:55:15;6.28;;;3.75;;
48987;SDS011;34799;51.440;-2.534;2023-04-06T00:57:43;6.53;;;3.70;;
48987;SDS011;34799;51.440;-2.534;2023-04-06T01:00:12;4.75;;;3.30;;
48987;SDS011;34799;51.440;-2.534;2023-04-06T01:02:42;5.55;;;3.75;;
48987;SDS011;34799;51.440;-2.534;2023-04-06T01:05:09;5.13;;;3.55;;
48987;SDS011;34799;51.440;-2.534;2023-04-06T01:07:48;4.60;;;3.08;;
48987;SDS011;34799;51.440;-2.534;2023-04-06T01:10:25;5.60;;;3.38;;
48987;SDS011;34799;51.440;-2.534;2023-04-06T01:13:09;6.20;;;3.60;;
48987;SDS011;34799;51.440;-2.534;2023-04-06T01:15:47;4.68;;;3.47;;
48987;SDS011;34799;51.440;-2.534;2023-04-06T01:18:25;6.00;;;4.00;;
48987;SDS011;34799;51.440;-2.534;2023-04-06T01:21:18;5.22;;;3.33;;
48987;SDS011;34799;51.440;-2.534;2023-04-06T01:24:15;3.97;;;3.08;;
48987;SDS011;34799;51.440;-2.534;2023-04-06T01:26:58;5.53;;;3.70;;
48987;SDS011;34799;51.440;-2.534;2023-04-06T01:29:34;4.90;;;3.20;;
48987;SDS011;34799;51.440;-2.534;2023-04-06T01:32:15;7.13;;;3.35;;
48987;SDS011;34799;51.440;-2.534;2023-04-06T01:34:51;4.32;;;2.70;;
48987;SDS011;34799;51.440;-2.534;2023-04-06T01:37:21;4.80;;;3.13;;
48987;SDS011;34799;51.440;-2.534;2023-04-06T01:39:50;5.03;;;3.10;;
48987;SDS011;34799;51.440;-2.534;2023-04-06T01:42:26;4.53;;;3.20;;
48987;SDS011;34799;51.440;-2.534;2023-04-06T01:44:54;4.50;;;3.28;;
48987;SDS011;34799;51.440;-2.534;2023-04-06T01:47:23;4.65;;;2.65;;
48987;SDS011;34799;51.440;-2.534;2023-04-06T01:49:50;4.45;;;2.95;;
48987;SDS011;34799;51.440;-2.534;2023-04-06T01:52:17;4.28;;;2.63;;
48987;SDS011;34799;51.440;-2.534;2023-04-06T01:54:50;3.97;;;2.72;;
48987;SDS011;34799;51.440;-2.534;2023-04-06T01:57:41;4.55;;;2.88;;
48987;SDS011;34799;51.440;-2.534;2023-04-06T02:00:20;3.53;;;2.63;;
48987;SDS011;34799;51.440;-2.534;2023-04-06T02:02:52;3.42;;;2.58;;
48987;SDS011;34799;51.440;-2.534;2023-04-06T02:05:24;4.95;;;2.65;;
48987;SDS011;34799;51.440;-2.534;2023-04-06T02:07:54;3.80;;;2.47;;
48987;SDS011;34799;51.440;-2.534;2023-04-06T02:10:29;2.55;;;1.90;;
48987;SDS011;34799;51.440;-2.534;2023-04-06T02:13:00;2.13;;;1.33;;
48987;SDS011;34799;51.440;-2.534;2023-04-06T02:15:29;1.35;;;0.88;;
48987;SDS011;34799;51.440;-2.534;2023-04-06T02:17:58;0.95;;;0.50;;
48987;SDS011;34799;51.440;-2.534;2023-04-06T02:20:26;1.55;;;0.30;;
48987;SDS011;34799;51.440;-2.534;2023-04-06T02:22:53;2.83;;;0.82;;
48987;SDS011;34799;51.440;-2.534;2023-04-06T02:25:20;1.10;;;0.28;;
48987;SDS011;34799;51.440;-2.534;2023-04-06T02:27:49;1.33;;;0.28;;
48987;SDS011;34799;51.440;-2.534;2023-04-06T02:30:16;3.70;;;0.45;;
48987;SDS011;34799;51.440;-2.534;2023-04-06T02:32:43;1.23;;;0.47;;
48987;SDS011;34799;51.440;-2.534;2023-04-06T02:35:11;1.80;;;0.30;;
48987;SDS011;34799;51.440;-2.534;2023-04-06T02:37:39;1.85;;;0.25;;
48987;SDS011;34799;51.440;-2.534;2023-04-06T02:40:08;0.60;;;0.30;;
48987;SDS011;34799;51.440;-2.534;2023-04-06T02:42:35;4.30;;;0.40;;
48987;SDS011;34799;51.440;-2.534;2023-04-06T02:45:03;1.95;;;1.10;;
48987;SDS011;34799;51.440;-2.534;2023-04-06T02:47:36;1.85;;;0.28;;
48987;SDS011;34799;51.440;-2.534;2023-04-06T02:50:04;1.42;;;0.30;;
48987;SDS011;34799;51.440;-2.534;2023-04-06T02:52:36;2.80;;;0.40;;
48987;SDS011;34799;51.440;-2.534;2023-04-06T02:55:03;1.42;;;0.30;;
48987;SDS011;34799;51.440;-2.534;2023-04-06T02:57:31;4.80;;;0.93;;
48987;SDS011;34799;51.440;-2.534;2023-04-06T02:59:58;1.20;;;0.32;;
48987;SDS011;34799;51.440;-2.534;2023-04-06T03:02:33;3.45;;;0.50;;
48987;SDS011;34799;51.440;-2.534;2023-04-06T03:05:06;1.90;;;0.20;;
48987;SDS011;34799;51.440;-2.534;2023-04-06T03:07:37;3.10;;;0.20;;
48987;SDS011;34799;51.440;-2.534;2023-04-06T03:10:09;1.90;;;0.38;;
48987;SDS011;34799;51.440;-2.534;2023-04-06T03:12:37;2.45;;;0.47;;
48987;SDS011;34799;51.440;-2.534;2023-04-06T03:15:07;3.83;;;0.47;;
48987;SDS011;34799;51.440;-2.534;2023-04-06T03:17:36;2.30;;;0.20;;
48987;SDS011;34799;51.440;-2.534;2023-04-06T03:20:10;4.47;;;0.52;;
48987;SDS011;34799;51.440;-2.534;2023-04-06T03:22:38;1.98;;;0.20;;
48987;SDS011;34799;51.440;-2.534;2023-04-06T03:25:07;2.00;;;0.20;;
48987;SDS011;34799;51.440;-2.534;2023-04-06T03:27:35;1.20;;;0.15;;
48987;SDS011;34799;51.440;-2.534;2023-04-06T03:30:04;1.95;;;0.10;;
48987;SDS011;34799;51.440;-2.534;2023-04-06T03:32:33;4.97;;;0.30;;
48987;SDS011;34799;51.440;-2.534;2023-04-06T03:35:02;4.28;;;0.10;;
48987;SDS011;34799;51.440;-2.534;2023-04-06T03:37:30;4.82;;;0.10;;
48987;SDS011;34799;51.440;-2.534;2023-04-06T03:40:01;1.35;;;0.10;;
48987;SDS011;34799;51.440;-2.534;2023-04-06T03:42:29;4.55;;;0.20;;
48987;SDS011;34799;51.440;-2.534;2023-04-06T03:45:02;3.78;;;0.30;;
48987;SDS011;34799;51.440;-2.534;2023-04-06T03:47:31;4.22;;;0.30;;
48987;SDS011;34799;51.440;-2.534;2023-04-06T03:50:02;8.95;;;0.55;;
48987;SDS011;34799;51.440;-2.534;2023-04-06T03:52:32;9.70;;;0.80;;
48987;SDS011;34799;51.440;-2.534;2023-04-06T03:55:00;13.75;;;0.88;;
48987;SDS011;34799;51.440;-2.534;2023-04-06T03:57:27;11.50;;;0.80;;
48987;SDS011;34799;51.440;-2.534;2023-04-06T03:59:56;9.55;;;0.88;;
48987;SDS011;34799;51.440;-2.534;2023-04-06T04:02:25;12.77;;;1.55;;
48987;SDS011;34799;51.440;-2.534;2023-04-06T04:04:52;16.70;;;1.17;;
48987;SDS011;34799;51.440;-2.534;2023-04-06T04:07:19;17.95;;;1.70;;
48987;SDS011;34799;51.440;-2.534;2023-04-06T04:09:46;10.25;;;1.52;;
48987;SDS011;34799;51.440;-2.534;2023-04-06T04:12:13;12.95;;;1.42;;
48987;SDS011;34799;51.440;-2.534;2023-04-06T04:14:44;18.92;;;1.90;;
48987;SDS011;34799;51.440;-2.534;2023-04-06T04:17:11;16.48;;;1.65;;
48987;SDS011;34799;51.440;-2.534;2023-04-06T04:19:38;16.73;;;1.90;;
48987;SDS011;34799;51.440;-2.534;2023-04-06T04:22:06;22.83;;;2.72;;
48987;SDS011;34799;51.440;-2.534;2023-04-06T04:24:37;10.85;;;0.88;;
48987;SDS011;34799;51.440;-2.534;2023-04-06T04:27:05;18.38;;;1.92;;
48987;SDS011;34799;51.440;-2.534;2023-04-06T04:29:33;16.33;;;1.48;;
48987;SDS011;34799;51.440;-2.534;2023-04-06T04:32:05;10.55;;;1.52;;
48987;SDS011;34799;51.440;-2.534;2023-04-06T04:34:32;14.10;;;1.63;;
48987;SDS011;34799;51.440;-2.534;2023-04-06T04:37:00;18.02;;;2.03;;
48987;SDS011;34799;51.440;-2.534;2023-04-06T04:39:51;15.27;;;1.77;;
48987;SDS011;34799;51.440;-2.534;2023-04-06T04:42:18;14.48;;;1.30;;
48987;SDS011;34799;51.440;-2.534;2023-04-06T04:44:51;19.85;;;3.15;;
48987;SDS011;34799;51.440;-2.534;2023-04-06T04:47:30;19.67;;;1.88;;
48987;SDS011;34799;51.440;-2.534;2023-04-06T04:49:58;15.32;;;1.55;;
48987;SDS011;34799;51.440;-2.534;2023-04-06T04:52:26;19.42;;;1.52;;
48987;SDS011;34799;51.440;-2.534;2023-04-06T04:55:12;14.43;;;2.13;;
48987;SDS011;34799;51.440;-2.534;2023-04-06T04:57:41;17.60;;;1.90;;
48987;SDS011;34799;51.440;-2.534;2023-04-06T05:00:08;12.90;;;1.50;;
48987;SDS011;34799;51.440;-2.534;2023-04-06T05:02:39;12.10;;;1.38;;
48987;SDS011;34799;51.440;-2.534;2023-04-06T05:05:12;17.48;;;2.17;;
48987;SDS011;34799;51.440;-2.534;2023-04-06T05:07:41;13.00;;;1.30;;
48987;SDS011;34799;51.440;-2.534;2023-04-06T05:10:15;12.80;;;1.33;;
48987;SDS011;34799;51.440;-2.534;2023-04-06T05:15:18;11.35;;;1.42;;
48987;SDS011;34799;51.440;-2.534;2023-04-06T05:17:48;15.35;;;2.47;;
48987;SDS011;34799;51.440;-2.534;2023-04-06T05:20:20;18.52;;;1.80;;
48987;SDS011;34799;51.440;-2.534;2023-04-06T05:22:49;17.90;;;2.05;;
48987;SDS011;34799;51.440;-2.534;2023-04-06T05:25:17;20.13;;;2.78;;
48987;SDS011;34799;51.440;-2.534;2023-04-06T05:27:47;18.23;;;2.72;;
48987;SDS011;34799;51.440;-2.534;2023-04-06T05:30:29;17.88;;;3.47;;
48987;SDS011;34799;51.440;-2.534;2023-04-06T05:32:57;21.10;;;3.65;;
48987;SDS011;34799;51.440;-2.534;2023-04-06T05:35:30;20.33;;;2.83;;
48987;SDS011;34799;51.440;-2.534;2023-04-06T05:40:34;13.55;;;2.85;;
48987;SDS011;34799;51.440;-2.534;2023-04-06T05:43:01;18.60;;;3.78;;
48987;SDS011;34799;51.440;-2.534;2023-04-06T05:45:29;22.85;;;4.53;;
48987;SDS011;34799;51.440;-2.534;2023-04-06T05:47:58;19.15;;;3.95;;
48987;SDS011;34799;51.440;-2.534;2023-04-06T05:50:28;16.00;;;4.60;;
48987;SDS011;34799;51.440;-2.534;2023-04-06T05:52:56;23.65;;;3.65;;
48987;SDS011;34799;51.440;-2.534;2023-04-06T05:55:29;27.42;;;5.78;;
48987;SDS011;34799;51.440;-2.534;2023-04-06T05:58:08;25.35;;;5.18;;
48987;SDS011;34799;51.440;-2.534;2023-04-06T06:00:37;18.45;;;5.65;;
48987;SDS011;34799;51.440;-2.534;2023-04-06T06:03:07;29.30;;;5.30;;
48987;SDS011;34799;51.440;-2.534;2023-04-06T06:05:37;20.52;;;6.18;;
48987;SDS011;34799;51.440;-2.534;2023-04-06T06:08:09;27.40;;;6.85;;
48987;SDS011;34799;51.440;-2.534;2023-04-06T06:10:38;30.08;;;6.95;;
48987;SDS011;34799;51.440;-2.534;2023-04-06T06:13:09;22.05;;;6.18;;
48987;SDS011;34799;51.440;-2.534;2023-04-06T06:15:36;25.20;;;5.97;;
48987;SDS011;34799;51.440;-2.534;2023-04-06T06:18:03;18.42;;;5.40;;
48987;SDS011;34799;51.440;-2.534;2023-04-06T06:20:31;19.48;;;5.38;;
48987;SDS011;34799;51.440;-2.534;2023-04-06T06:23:02;18.88;;;5.47;;
48987;SDS011;34799;51.440;-2.534;2023-04-06T06:25:30;22.00;;;5.80;;
48987;SDS011;34799;51.440;-2.534;2023-04-06T06:27:59;29.00;;;6.40;;
48987;SDS011;34799;51.440;-2.534;2023-04-06T06:30:29;20.33;;;6.30;;
48987;SDS011;34799;51.440;-2.534;2023-04-06T06:32:56;24.27;;;7.78;;
48987;SDS011;34799;51.440;-2.534;2023-04-06T06:35:25;25.00;;;8.35;;
48987;SDS011;34799;51.440;-2.534;2023-04-06T06:37:53;26.73;;;7.50;;
48987;SDS011;34799;51.440;-2.534;2023-04-06T06:40:23;27.05;;;8.00;;
48987;SDS011;34799;51.440;-2.534;2023-04-06T06:42:53;25.80;;;7.65;;
48987;SDS011;34799;51.440;-2.534;2023-04-06T06:45:28;27.70;;;8.63;;
48987;SDS011;34799;51.440;-2.534;2023-04-06T06:47:56;30.83;;;9.07;;
48987;SDS011;34799;51.440;-2.534;2023-04-06T06:50:23;40.28;;;9.00;;
48987;SDS011;34799;51.440;-2.534;2023-04-06T06:52:51;38.45;;;9.25;;
48987;SDS011;34799;51.440;-2.534;2023-04-06T06:55:18;27.85;;;8.52;;
48987;SDS011;34799;51.440;-2.534;2023-04-06T06:57:45;30.80;;;8.15;;
48987;SDS011;34799;51.440;-2.534;2023-04-06T07:00:14;26.85;;;7.97;;
48987;SDS011;34799;51.440;-2.534;2023-04-06T07:02:43;24.95;;;8.25;;
48987;SDS011;34799;51.440;-2.534;2023-04-06T07:05:10;25.02;;;8.07;;
48987;SDS011;34799;51.440;-2.534;2023-04-06T07:07:42;24.23;;;8.02;;
48987;SDS011;34799;51.440;-2.534;2023-04-06T07:10:09;16.77;;;7.38;;
48987;SDS011;34799;51.440;-2.534;2023-04-06T07:12:37;18.25;;;7.20;;
48987;SDS011;34799;51.440;-2.534;2023-04-06T07:15:04;22.00;;;6.93;;
48987;SDS011;34799;51.440;-2.534;2023-04-06T07:17:34;18.10;;;5.78;;
48987;SDS011;34799;51.440;-2.534;2023-04-06T07:20:01;18.42;;;5.57;;
48987;SDS011;34799;51.440;-2.534;2023-04-06T07:22:30;16.33;;;4.90;;
48987;SDS011;34799;51.440;-2.534;2023-04-06T07:24:57;13.02;;;4.97;;
48987;SDS011;34799;51.440;-2.534;2023-04-06T07:27:27;12.45;;;3.92;;
48987;SDS011;34799;51.440;-2.534;2023-04-06T07:29:54;16.38;;;4.90;;
48987;SDS011;34799;51.440;-2.534;2023-04-06T07:32:22;14.40;;;3.70;;
48987;SDS011;34799;51.440;-2.534;2023-04-06T07:34:49;11.13;;;3.38;;
48987;SDS011;34799;51.440;-2.534;2023-04-06T07:37:16;13.57;;;3.42;;
48987;SDS011;34799;51.440;-2.534;2023-04-06T07:39:44;13.43;;;3.38;;
48987;SDS011;34799;51.440;-2.534;2023-04-06T07:42:13;8.60;;;2.95;;
48987;SDS011;34799;51.440;-2.534;2023-04-06T07:44:40;13.38;;;2.97;;
48987;SDS011;34799;51.440;-2.534;2023-04-06T07:47:08;12.23;;;3.20;;
48987;SDS011;34799;51.440;-2.534;2023-04-06T07:49:36;10.50;;;3.58;;
48987;SDS011;34799;51.440;-2.534;2023-04-06T07:52:05;15.60;;;5.00;;
48987;SDS011;34799;51.440;-2.534;2023-04-06T07:54:32;16.35;;;5.78;;
48987;SDS011;34799;51.440;-2.534;2023-04-06T07:57:00;12.82;;;6.15;;
48987;SDS011;34799;51.440;-2.534;2023-04-06T07:59:27;16.05;;;6.05;;
48987;SDS011;34799;51.440;-2.534;2023-04-06T08:01:54;14.10;;;6.00;;
48987;SDS011;34799;51.440;-2.534;2023-04-06T08:04:21;19.08;;;7.38;;
48987;SDS011;34799;51.440;-2.534;2023-04-06T08:06:48;12.68;;;6.55;;
48987;SDS011;34799;51.440;-2.534;2023-04-06T08:09:16;18.02;;;6.63;;
48987;SDS011;34799;51.440;-2.534;2023-04-06T08:11:44;12.50;;;6.10;;
48987;SDS011;34799;51.440;-2.534;2023-04-06T08:14:12;12.52;;;6.38;;
48987;SDS011;34799;51.440;-2.534;2023-04-06T08:16:39;17.85;;;5.50;;
48987;SDS011;34799;51.440;-2.534;2023-04-06T08:19:06;15.90;;;5.15;;
48987;SDS011;34799;51.440;-2.534;2023-04-06T08:21:36;13.25;;;4.30;;
48987;SDS011;34799;51.440;-2.534;2023-04-06T08:24:03;14.77;;;4.93;;
48987;SDS011;34799;51.440;-2.534;2023-04-06T08:26:32;16.27;;;5.38;;
48987;SDS011;34799;51.440;-2.534;2023-04-06T08:28:59;18.77;;;5.00;;
48987;SDS011;34799;51.440;-2.534;2023-04-06T08:31:26;19.05;;;5.35;;
48987;SDS011;34799;51.440;-2.534;2023-04-06T08:33:55;9.55;;;4.72;;
48987;SDS011;34799;51.440;-2.534;2023-04-06T08:36:22;13.45;;;5.57;;
48987;SDS011;34799;51.440;-2.534;2023-04-06T08:38:49;16.13;;;5.35;;
48987;SDS011;34799;51.440;-2.534;2023-04-06T08:41:18;12.45;;;5.07;;
48987;SDS011;34799;51.440;-2.534;2023-04-06T08:46:15;12.18;;;4.25;;
48987;SDS011;34799;51.440;-2.534;2023-04-06T08:48:42;14.00;;;4.50;;
48987;SDS011;34799;51.440;-2.534;2023-04-06T08:51:10;8.02;;;3.17;;
48987;SDS011;34799;51.440;-2.534;2023-04-06T08:53:37;9.57;;;3.03;;
48987;SDS011;34799;51.440;-2.534;2023-04-06T08:56:05;9.25;;;2.35;;
48987;SDS011;34799;51.440;-2.534;2023-04-06T08:58:35;9.15;;;2.47;;
48987;SDS011;34799;51.440;-2.534;2023-04-06T09:01:07;8.73;;;1.88;;
48987;SDS011;34799;51.440;-2.534;2023-04-06T09:03:38;7.75;;;2.60;;
48987;SDS011;34799;51.440;-2.534;2023-04-06T09:06:06;8.55;;;2.80;;
48987;SDS011;34799;51.440;-2.534;2023-04-06T09:08:38;8.95;;;2.13;;
48987;SDS011;34799;51.440;-2.534;2023-04-06T09:11:06;8.23;;;1.83;;
48987;SDS011;34799;51.440;-2.534;2023-04-06T09:13:44;9.77;;;1.95;;
48987;SDS011;34799;51.440;-2.534;2023-04-06T09:16:15;8.20;;;1.45;;
48987;SDS011;34799;51.440;-2.534;2023-04-06T09:18:42;7.32;;;1.60;;
48987;SDS011;34799;51.440;-2.534;2023-04-06T09:21:10;10.82;;;1.50;;
48987;SDS011;34799;51.440;-2.534;2023-04-06T09:23:39;6.97;;;1.38;;
48987;SDS011;34799;51.440;-2.534;2023-04-06T09:26:10;8.95;;;1.75;;
48987;SDS011;34799;51.440;-2.534;2023-04-06T09:31:13;5.68;;;0.82;;
48987;SDS011;34799;51.440;-2.534;2023-04-06T09:33:43;8.23;;;1.70;;
48987;SDS011;34799;51.440;-2.534;2023-04-06T09:36:11;6.13;;;0.60;;
48987;SDS011;34799;51.440;-2.534;2023-04-06T09:38:50;5.50;;;0.90;;
48987;SDS011;34799;51.440;-2.534;2023-04-06T09:44:03;7.30;;;0.95;;
48987;SDS011;34799;51.440;-2.534;2023-04-06T09:46:41;3.63;;;0.60;;
48987;SDS011;34799;51.440;-2.534;2023-04-06T09:49:21;5.80;;;1.05;;
48987;SDS011;34799;51.440;-2.534;2023-04-06T09:51:53;3.88;;;0.43;;
48987;SDS011;34799;51.440;-2.534;2023-04-06T09:54:23;3.83;;;0.30;;
48987;SDS011;34799;51.440;-2.534;2023-04-06T09:56:56;6.93;;;1.50;;
48987;SDS011;34799;51.440;-2.534;2023-04-06T10:05:52;8.55;;;1.00;;
48987;SDS011;34799;51.440;-2.534;2023-04-06T10:08:25;4.72;;;0.68;;
48987;SDS011;34799;51.440;-2.534;2023-04-06T10:10:57;4.13;;;1.08;;
48987;SDS011;34799;51.440;-2.534;2023-04-06T10:13:25;5.47;;;1.33;;
48987;SDS011;34799;51.440;-2.534;2023-04-06T10:15:52;7.97;;;1.20;;
48987;SDS011;34799;51.440;-2.534;2023-04-06T10:18:20;7.85;;;1.55;;
48987;SDS011;34799;51.440;-2.534;2023-04-06T10:23:24;7.15;;;1.60;;
48987;SDS011;34799;51.440;-2.534;2023-04-06T10:25:58;8.68;;;1.88;;
48987;SDS011;34799;51.440;-2.534;2023-04-06T10:28:31;9.95;;;2.38;;
48987;SDS011;34799;51.440;-2.534;2023-04-06T10:31:05;15.90;;;2.80;;
48987;SDS011;34799;51.440;-2.534;2023-04-06T10:33:33;9.32;;;1.92;;
48987;SDS011;34799;51.440;-2.534;2023-04-06T10:36:13;15.23;;;2.85;;
48987;SDS011;34799;51.440;-2.534;2023-04-06T10:38:41;13.18;;;2.47;;
48987;SDS011;34799;51.440;-2.534;2023-04-06T10:41:09;6.72;;;1.75;;
48987;SDS011;34799;51.440;-2.534;2023-04-06T10:43:40;13.88;;;2.42;;
48987;SDS011;34799;51.440;-2.534;2023-04-06T10:46:07;11.65;;;2.17;;
48987;SDS011;34799;51.440;-2.534;2023-04-06T10:48:43;12.68;;;2.38;;
48987;SDS011;34799;51.440;-2.534;2023-04-06T10:51:15;5.55;;;1.13;;
48987;SDS011;34799;51.440;-2.534;2023-04-06T10:53:45;8.60;;;1.50;;
48987;SDS011;34799;51.440;-2.534;2023-04-06T10:56:17;7.53;;;1.75;;
48987;SDS011;34799;51.440;-2.534;2023-04-06T10:58:48;5.93;;;1.23;;
48987;SDS011;34799;51.440;-2.534;2023-04-06T11:01:19;9.50;;;2.00;;
48987;SDS011;34799;51.440;-2.534;2023-04-06T11:03:48;12.02;;;1.42;;
48987;SDS011;34799;51.440;-2.534;2023-04-06T11:06:23;6.50;;;0.73;;
48987;SDS011;34799;51.440;-2.534;2023-04-06T11:08:54;10.27;;;1.23;;
48987;SDS011;34799;51.440;-2.534;2023-04-06T11:11:23;8.80;;;0.85;;
48987;SDS011;34799;51.440;-2.534;2023-04-06T11:13:53;8.38;;;1.45;;
48987;SDS011;34799;51.440;-2.534;2023-04-06T11:16:22;4.25;;;0.60;;
48987;SDS011;34799;51.440;-2.534;2023-04-06T11:21:18;3.83;;;0.20;;
48987;SDS011;34799;51.440;-2.534;2023-04-06T11:23:46;2.67;;;0.20;;
48987;SDS011;34799;51.440;-2.534;2023-04-06T11:26:15;2.47;;;0.32;;
48987;SDS011;34799;51.440;-2.534;2023-04-06T11:28:42;7.13;;;0.77;;
48987;SDS011;34799;51.440;-2.534;2023-04-06T11:31:10;7.47;;;0.47;;
48987;SDS011;34799;51.440;-2.534;2023-04-06T11:33:38;7.20;;;1.08;;
48987;SDS011;34799;51.440;-2.534;2023-04-06T11:36:06;12.57;;;1.75;;
48987;SDS011;34799;51.440;-2.534;2023-04-06T11:38:34;7.85;;;1.30;;
48987;SDS011;34799;51.440;-2.534;2023-04-06T11:41:06;5.68;;;0.90;;
48987;SDS011;34799;51.440;-2.534;2023-04-06T11:43:33;12.00;;;1.38;;
48987;SDS011;34799;51.440;-2.534;2023-04-06T11:46:02;8.77;;;1.05;;
48987;SDS011;34799;51.440;-2.534;2023-04-06T11:48:30;9.13;;;0.70;;
48987;SDS011;34799;51.440;-2.534;2023-04-06T11:50:58;6.32;;;0.73;;
48987;SDS011;34799;51.440;-2.534;2023-04-06T11:53:31;3.20;;;0.50;;
48987;SDS011;34799;51.440;-2.534;2023-04-06T11:55:59;4.07;;;0.38;;
48987;SDS011;34799;51.440;-2.534;2023-04-06T11:58:27;5.75;;;0.47;;
48987;SDS011;34799;51.440;-2.534;2023-04-06T12:01:02;6.70;;;0.50;;
48987;SDS011;34799;51.440;-2.534;2023-04-06T12:03:31;4.95;;;0.50;;
48987;SDS011;34799;51.440;-2.534;2023-04-06T12:05:58;7.40;;;0.63;;
48987;SDS011;34799;51.440;-2.534;2023-04-06T12:08:26;9.00;;;0.70;;
48987;SDS011;34799;51.440;-2.534;2023-04-06T12:10:53;6.00;;;1.23;;
48987;SDS011;34799;51.440;-2.534;2023-04-06T12:13:20;6.50;;;0.75;;
48987;SDS011;34799;51.440;-2.534;2023-04-06T12:15:47;7.53;;;1.05;;
48987;SDS011;34799;51.440;-2.534;2023-04-06T12:18:14;9.23;;;0.80;;
48987;SDS011;34799;51.440;-2.534;2023-04-06T12:20:43;5.63;;;0.73;;
48987;SDS011;34799;51.440;-2.534;2023-04-06T12:23:10;6.50;;;1.48;;
48987;SDS011;34799;51.440;-2.534;2023-04-06T12:25:38;8.25;;;1.35;;
48987;SDS011;34799;51.440;-2.534;2023-04-06T12:28:07;5.63;;;0.68;;
48987;SDS011;34799;51.440;-2.534;2023-04-06T12:30:34;8.88;;;0.60;;
48987;SDS011;34799;51.440;-2.534;2023-04-06T12:33:02;2.60;;;0.50;;
48987;SDS011;34799;51.440;-2.534;2023-04-06T12:35:33;6.85;;;1.35;;
48987;SDS011;34799;51.440;-2.534;2023-04-06T12:38:00;5.68;;;0.63;;
48987;SDS011;34799;51.440;-2.534;2023-04-06T12:40:27;8.38;;;0.75;;
48987;SDS011;34799;51.440;-2.534;2023-04-06T12:42:55;5.47;;;0.80;;
48987;SDS011;34799;51.440;-2.534;2023-04-06T12:45:22;9.18;;;1.05;;
48987;SDS011;34799;51.440;-2.534;2023-04-06T12:47:50;4.32;;;0.47;;
48987;SDS011;34799;51.440;-2.534;2023-04-06T12:50:17;3.30;;;0.52;;
48987;SDS011;34799;51.440;-2.534;2023-04-06T12:52:44;2.25;;;0.13;;
48987;SDS011;34799;51.440;-2.534;2023-04-06T12:55:11;2.97;;;0.10;;
48987;SDS011;34799;51.440;-2.534;2023-04-06T12:57:39;1.77;;;0.25;;
48987;SDS011;34799;51.440;-2.534;2023-04-06T13:00:08;0.03;;;0.00;;
48987;SDS011;34799;51.440;-2.534;2023-04-06T13:02:35;0.45;;;0.05;;
48987;SDS011;34799;51.440;-2.534;2023-04-06T13:05:02;3.13;;;0.10;;
48987;SDS011;34799;51.440;-2.534;2023-04-06T13:07:29;1.88;;;0.10;;
48987;SDS011;34799;51.440;-2.534;2023-04-06T13:09:56;0.43;;;0.20;;
48987;SDS011;34799;51.440;-2.534;2023-04-06T13:12:25;0.40;;;0.10;;
48987;SDS011;34799;51.440;-2.534;2023-04-06T13:14:53;1.70;;;0.50;;
48987;SDS011;34799;51.440;-2.534;2023-04-06T13:17:20;0.70;;;0.10;;
48987;SDS011;34799;51.440;-2.534;2023-04-06T13:19:48;1.52;;;0.10;;
48987;SDS011;34799;51.440;-2.534;2023-04-06T13:22:15;1.15;;;0.10;;
48987;SDS011;34799;51.440;-2.534;2023-04-06T13:24:42;0.40;;;0.10;;
48987;SDS011;34799;51.440;-2.534;2023-04-06T13:27:09;1.38;;;0.10;;
48987;SDS011;34799;51.440;-2.534;2023-04-06T13:29:37;1.98;;;0.10;;
48987;SDS011;34799;51.440;-2.534;2023-04-06T13:32:04;1.38;;;0.17;;
48987;SDS011;34799;51.440;-2.534;2023-04-06T13:34:31;1.42;;;0.30;;
48987;SDS011;34799;51.440;-2.534;2023-04-06T13:36:59;2.20;;;0.60;;
48987;SDS011;34799;51.440;-2.534;2023-04-06T13:39:26;2.03;;;0.35;;
48987;SDS011;34799;51.440;-2.534;2023-04-06T13:41:53;4.63;;;0.30;;
48987;SDS011;34799;51.440;-2.534;2023-04-06T13:44:23;8.85;;;2.78;;
48987;SDS011;34799;51.440;-2.534;2023-04-06T13:46:50;3.00;;;0.57;;
48987;SDS011;34799;51.440;-2.534;2023-04-06T13:49:17;3.05;;;0.40;;
48987;SDS011;34799;51.440;-2.534;2023-04-06T13:51:44;6.57;;;0.25;;
48987;SDS011;34799;51.440;-2.534;2023-04-06T13:54:11;4.05;;;0.28;;
48987;SDS011;34799;51.440;-2.534;2023-04-06T13:56:38;3.50;;;0.80;;
48987;SDS011;34799;51.440;-2.534;2023-04-06T13:59:05;6.05;;;2.17;;
48987;SDS011;34799;51.440;-2.534;2023-04-06T14:01:33;3.53;;;0.30;;
48987;SDS011;34799;51.440;-2.534;2023-04-06T14:04:01;7.03;;;0.30;;
48987;SDS011;34799;51.440;-2.534;2023-04-06T14:06:28;2.95;;;0.82;;
48987;SDS011;34799;51.440;-2.534;2023-04-06T14:08:57;6.70;;;0.73;;
48987;SDS011;34799;51.440;-2.534;2023-04-06T14:11:24;5.10;;;0.77;;
48987;SDS011;34799;51.440;-2.534;2023-04-06T14:13:51;4.55;;;0.40;;
48987;SDS011;34799;51.440;-2.534;2023-04-06T14:16:18;4.22;;;0.38;;
48987;SDS011;34799;51.440;-2.534;2023-04-06T14:18:47;4.63;;;0.57;;
48987;SDS011;34799;51.440;-2.534;2023-04-06T14:21:14;3.78;;;0.40;;
48987;SDS011;34799;51.440;-2.534;2023-04-06T14:23:41;6.82;;;0.40;;
48987;SDS011;34799;51.440;-2.534;2023-04-06T14:26:08;7.93;;;0.85;;
48987;SDS011;34799;51.440;-2.534;2023-04-06T14:28:35;7.43;;;0.85;;
48987;SDS011;34799;51.440;-2.534;2023-04-06T14:31:08;5.05;;;0.60;;
48987;SDS011;34799;51.440;-2.534;2023-04-06T14:33:38;4.40;;;0.43;;
48987;SDS011;34799;51.440;-2.534;2023-04-06T14:36:07;8.40;;;1.17;;
48987;SDS011;34799;51.440;-2.534;2023-04-06T14:38:35;6.75;;;1.30;;
48987;SDS011;34799;51.440;-2.534;2023-04-06T14:41:02;3.13;;;0.30;;
48987;SDS011;34799;51.440;-2.534;2023-04-06T14:43:29;6.35;;;0.40;;
48987;SDS011;34799;51.440;-2.534;2023-04-06T14:45:59;5.88;;;0.40;;
48987;SDS011;34799;51.440;-2.534;2023-04-06T14:48:28;3.67;;;0.93;;
48987;SDS011;34799;51.440;-2.534;2023-04-06T14:50:55;5.55;;;0.45;;
48987;SDS011;34799;51.440;-2.534;2023-04-06T14:53:23;6.97;;;0.40;;
48987;SDS011;34799;51.440;-2.534;2023-04-06T14:55:50;4.95;;;0.70;;
48987;SDS011;34799;51.440;-2.534;2023-04-06T14:58:20;3.47;;;0.43;;
48987;SDS011;34799;51.440;-2.534;2023-04-06T15:00:49;5.10;;;0.90;;
48987;SDS011;34799;51.440;-2.534;2023-04-06T15:03:21;4.50;;;0.50;;
48987;SDS011;34799;51.440;-2.534;2023-04-06T15:05:54;6.28;;;0.82;;
48987;SDS011;34799;51.440;-2.534;2023-04-06T15:08:23;2.80;;;0.45;;